Time;durP1;ratioP1;P1;durP2;ratioP2;P2;SDS_P1;SDS_P2;PMS_P1;PMS_P2;Temp;Humidity;BMP_temperature;BMP_pressure;BME280_temperature;BME280_humidity;BME280_pressure;Samples;Min_cycle;Max_cycle;Signal;HPM_P1;HPM_P2
2022/10/02 00:00:00;;;;;;;0.30;0.30;;;15.50;99.90;16.00;101305.00;;;;5074606;28;20243;-69
2022/10/02 00:02:48;;;;;;;0.20;0.20;;;15.50;99.90;15.60;101310.00;;;;5074302;28;20186;-69
2022/10/02 00:05:34;;;;;;;0.30;0.30;;;15.40;99.90;15.50;101308.00;;;;5074691;28;20552;-69
2022/10/02 00:08:11;;;;;;;0.30;0.30;;;15.30;99.90;15.90;101319.00;;;;5074443;28;20189;-69
2022/10/02 00:11:05;;;;;;;0.20;0.20;;;15.40;99.90;15.80;101321.00;;;;5074636;28;20182;-69
2022/10/02 00:13:43;;;;;;;0.30;0.30;;;15.40;99.90;15.90;101315.00;;;;5074134;28;20543;-69
2022/10/02 00:16:32;;;;;;;1.40;1.40;;;15.40;99.90;15.60;101316.00;;;;5074117;28;20194;-69
2022/10/02 00:19:01;;;;;;;2.40;0.90;;;15.40;99.90;15.90;101327.00;;;;5074324;28;20208;-69
2022/10/02 00:21:44;;;;;;;7.07;1.80;;;15.40;99.90;15.70;101254.00;;;;5074279;28;20245;-69
2022/10/02 00:24:26;;;;;;;0.20;0.20;;;15.40;99.90;16.00;101278.00;;;;5073857;28;20174;-69
2022/10/02 00:27:04;;;;;;;0.30;0.30;;;15.50;99.90;16.40;101320.00;;;;5074170;28;20633;-69
2022/10/02 00:29:53;;;;;;;0.30;0.30;;;15.70;99.90;16.00;101308.00;;;;5075318;28;20257;-69
2022/10/02 00:32:28;;;;;;;0.30;0.30;;;15.70;99.90;15.90;101312.00;;;;5073666;28;20300;-69
2022/10/02 00:35:53;;;;;;;0.30;0.30;;;15.60;99.90;16.00;101314.00;;;;5090666;28;20906;-69
2022/10/02 00:38:50;;;;;;;0.40;0.40;;;15.50;99.90;15.80;101332.00;;;;5066432;28;20207;-68
2022/10/02 00:41:42;;;;;;;0.20;0.20;;;15.50;99.90;15.70;101328.00;;;;5073975;28;20178;-69
2022/10/02 00:45:10;;;;;;;4.87;1.60;;;15.40;99.90;15.80;101335.00;;;;5073406;28;20243;-69
2022/10/02 00:48:10;;;;;;;0.20;0.20;;;15.30;99.90;15.90;101327.00;;;;5046816;28;20201;-69
2022/10/02 00:51:21;;;;;;;4.33;0.93;;;15.50;99.90;15.80;101327.00;;;;5074950;28;20204;-69
2022/10/02 00:54:14;;;;;;;0.20;0.20;;;15.40;99.90;16.00;101325.00;;;;5073271;28;20173;-69
2022/10/02 00:57:17;;;;;;;1.47;0.67;;;15.50;99.90;15.90;101313.00;;;;5074195;28;20187;-68
2022/10/02 01:00:16;;;;;;;0.73;0.50;;;15.60;99.90;15.80;101326.00;;;;5073193;28;20182;-69
2022/10/02 01:03:10;;;;;;;0.20;0.20;;;15.50;99.90;15.80;101333.00;;;;5046192;28;20273;-68
2022/10/02 01:05:40;;;;;;;0.63;0.63;;;15.50;99.90;15.90;101282.00;;;;5073108;28;20185;-69
2022/10/02 01:08:06;;;;;;;2.97;2.60;;;15.60;99.90;16.10;101314.00;;;;5089897;28;20187;-69
2022/10/02 01:10:39;;;;;;;0.53;0.47;;;15.60;99.90;15.50;101279.00;;;;5089970;28;20643;-69
2022/10/02 01:13:11;;;;;;;0.20;0.20;;;15.50;99.90;15.70;101309.00;;;;5073176;28;20259;-69
2022/10/02 01:15:45;;;;;;;0.43;0.43;;;15.50;99.90;15.50;101318.00;;;;5073017;28;20194;-69
2022/10/02 01:18:18;;;;;;;1.90;1.80;;;15.40;99.90;16.10;101323.00;;;;5073260;28;20176;-69
2022/10/02 01:20:51;;;;;;;12.03;2.43;;;15.60;99.90;15.60;101319.00;;;;5072913;28;20171;-69
2022/10/02 01:23:52;;;;;;;20.73;2.93;;;15.50;99.90;15.50;101312.00;;;;5073027;28;20183;-68
2022/10/02 01:26:21;;;;;;;1.03;0.87;;;15.40;99.90;15.50;101338.00;;;;5073866;28;20187;-68
2022/10/02 01:28:51;;;;;;;6.37;1.83;;;15.40;99.90;15.80;101323.00;;;;5072530;28;20222;-69
2022/10/02 01:31:20;;;;;;;0.93;0.47;;;15.50;99.90;15.90;101327.00;;;;5072737;28;20315;-69
2022/10/02 01:33:49;;;;;;;0.80;0.80;;;15.50;99.90;16.00;101313.00;;;;5073313;28;20172;-69
2022/10/02 01:36:24;;;;;;;2.83;1.13;;;15.60;99.90;15.90;101332.00;;;;5072660;28;20228;-68
2022/10/02 01:38:56;;;;;;;0.30;0.30;;;15.60;99.90;16.20;101271.00;;;;5072586;28;20190;-69
2022/10/02 01:41:23;;;;;;;0.67;0.67;;;15.70;99.90;16.10;101318.00;;;;5072590;28;20523;-69
2022/10/02 01:43:54;;;;;;;4.27;2.10;;;15.70;99.90;16.30;101328.00;;;;5072325;28;20642;-69
2022/10/02 01:46:36;;;;;;;1.13;0.77;;;15.80;99.90;15.90;101309.00;;;;5072309;28;20519;-68
2022/10/02 01:49:17;;;;;;;3.33;2.60;;;15.70;99.90;16.20;101332.00;;;;5072634;28;20180;-70
2022/10/02 01:52:11;;;;;;;0.20;0.20;;;15.90;99.90;15.80;101285.00;;;;5089021;28;20703;-69
2022/10/02 01:54:58;;;;;;;1.30;0.83;;;15.70;99.90;15.80;101335.00;;;;5073735;28;20187;-69
2022/10/02 01:58:32;;;;;;;6.03;0.97;;;15.80;99.90;16.00;101359.00;;;;5070326;28;20520;-69
2022/10/02 02:01:33;;;;;;;0.30;0.30;;;15.70;99.90;15.80;101367.00;;;;5050757;28;20270;-69
2022/10/02 02:04:20;;;;;;;4.10;2.23;;;15.70;99.90;16.00;101339.00;;;;5042700;28;20221;-69
2022/10/02 02:07:29;;;;;;;0.20;0.20;;;15.70;99.90;16.20;101368.00;;;;5050693;28;20182;-69
2022/10/02 02:10:23;;;;;;;0.37;0.37;;;15.80;99.90;16.00;101349.00;;;;5032028;28;20190;-69
2022/10/02 02:13:29;;;;;;;0.40;0.40;;;15.80;99.90;15.70;101350.00;;;;5049254;28;20210;-69
2022/10/02 02:16:40;;;;;;;1.93;1.47;;;15.70;99.90;15.90;101351.00;;;;5038612;28;20215;-69
2022/10/02 02:19:59;;;;;;;3.50;1.80;;;15.70;99.90;16.10;101341.00;;;;5050656;28;20189;-69
2022/10/02 02:22:42;;;;;;;1.77;0.80;;;15.80;99.90;16.30;101348.00;;;;5038274;28;20640;-69
2022/10/02 02:25:25;;;;;;;8.67;0.87;;;15.80;99.90;15.80;101349.00;;;;5048952;28;20639;-69
2022/10/02 02:28:03;;;;;;;0.20;0.20;;;15.70;99.90;15.60;101366.00;;;;5048506;28;20635;-69
2022/10/02 02:30:35;;;;;;;4.73;0.90;;;15.60;99.90;15.50;101370.00;;;;5048854;28;20190;-69
2022/10/02 02:33:21;;;;;;;2.93;2.00;;;15.50;99.90;15.80;101361.00;;;;5048790;28;20192;-69
2022/10/02 02:35:55;;;;;;;22.33;1.50;;;15.60;99.90;16.10;101370.00;;;;5049932;28;20184;-69
2022/10/02 02:38:47;;;;;;;0.67;0.67;;;15.70;99.90;16.10;101366.00;;;;5031907;28;20184;-69
2022/10/02 02:41:20;;;;;;;8.38;4.38;;;15.60;99.90;15.60;101361.00;;;;5047401;28;20428;-69
2022/10/02 02:44:07;;;;;;;1.67;1.47;;;15.50;99.90;15.80;101371.00;;;;5048548;28;20178;-69
2022/10/02 02:47:04;;;;;;;2.33;0.50;;;15.60;99.90;15.60;101359.00;;;;5031963;28;20189;-69
2022/10/02 02:49:58;;;;;;;0.30;0.30;;;15.50;99.90;15.60;101373.00;;;;5048591;28;20185;-68
2022/10/02 02:52:44;;;;;;;0.30;0.30;;;15.50;99.90;15.60;101328.00;;;;5038989;28;20199;-68
2022/10/02 02:55:28;;;;;;;9.83;2.53;;;15.50;99.90;15.90;101373.00;;;;5048512;28;20303;-69
2022/10/02 02:58:21;;;;;;;0.20;0.20;;;15.50;99.90;15.70;101377.00;;;;5048148;28;20214;-69
2022/10/02 03:00:53;;;;;;;0.33;0.33;;;15.50;99.90;15.80;101379.00;;;;5043534;28;20198;-69
2022/10/02 03:03:34;;;;;;;1.30;0.90;;;15.50;99.90;15.50;101381.00;;;;5048426;28;20179;-69
2022/10/02 03:06:14;;;;;;;0.47;0.47;;;15.40;99.90;15.80;101379.00;;;;5049592;28;20187;-69
2022/10/02 03:08:51;;;;;;;1.90;0.60;;;15.40;99.90;15.90;101382.00;;;;5039390;28;20197;-69
2022/10/02 03:11:28;;;;;;;0.40;0.40;;;15.50;99.90;15.60;101381.00;;;;5018442;28;20631;-69
2022/10/02 03:14:11;;;;;;;4.57;1.13;;;15.50;99.90;15.50;101386.00;;;;5036319;28;20274;-69
2022/10/02 03:17:17;;;;;;;2.07;0.97;;;15.40;99.90;15.90;101382.00;;;;5035880;28;20703;-69
2022/10/02 03:20:19;;;;;;;4.70;1.83;;;15.60;99.90;15.80;101365.00;;;;5035998;28;20180;-69
2022/10/02 03:22:58;;;;;;;0.43;0.43;;;15.60;99.90;16.10;101364.00;;;;5033029;28;20286;-69
2022/10/02 03:25:45;;;;;;;5.60;1.70;;;15.70;99.90;15.70;101361.00;;;;5035564;28;20179;-69
2022/10/02 03:28:26;;;;;;;1.47;1.30;;;15.60;99.90;15.90;101366.00;;;;5034888;28;20176;-69
2022/10/02 03:30:54;;;;;;;0.30;0.30;;;15.60;99.90;15.50;101366.00;;;;5035968;28;20177;-69
2022/10/02 03:33:21;;;;;;;0.30;0.30;;;15.40;99.90;15.60;101371.00;;;;5036010;28;20215;-69
2022/10/02 03:35:49;;;;;;;0.93;0.93;;;15.50;99.90;15.80;101359.00;;;;5017954;28;20572;-69
2022/10/02 03:38:20;;;;;;;0.87;0.63;;;15.40;99.90;15.60;101368.00;;;;5033993;28;20302;-68
2022/10/02 03:40:51;;;;;;;0.47;0.47;;;15.40;99.90;15.70;101361.00;;;;5034545;28;20175;-69
2022/10/02 03:43:24;;;;;;;0.20;0.20;;;15.40;99.90;15.80;101358.00;;;;5034373;28;20180;-70
2022/10/02 03:45:57;;;;;;;0.20;0.20;;;15.40;99.90;15.70;101313.00;;;;5034279;28;20179;-69
2022/10/02 03:48:23;;;;;;;0.50;0.50;;;15.40;99.90;15.90;101355.00;;;;5035284;28;20551;-69
2022/10/02 03:50:57;;;;;;;3.93;1.20;;;15.40;99.90;16.00;101372.00;;;;5034417;28;20192;-69
2022/10/02 03:53:32;;;;;;;0.20;0.20;;;15.60;99.90;15.50;101372.00;;;;5034111;28;20581;-70
2022/10/02 03:56:18;;;;;;;0.20;0.20;;;15.40;99.90;15.70;101324.00;;;;5035207;28;20212;-69
2022/10/02 03:58:48;;;;;;;0.87;0.77;;;15.40;99.90;15.60;101369.00;;;;5033785;28;20224;-69
2022/10/02 04:01:27;;;;;;;0.20;0.20;;;15.40;99.90;15.80;101383.00;;;;5034317;28;20233;-69
2022/10/02 04:04:09;;;;;;;0.37;0.37;;;15.40;99.90;15.30;101379.00;;;;5034076;28;20188;-69
2022/10/02 04:06:47;;;;;;;1.00;1.00;;;15.30;99.90;15.90;101380.00;;;;5033755;28;20177;-69
2022/10/02 04:09:41;;;;;;;0.30;0.30;;;15.40;99.90;15.70;101338.00;;;;5016657;28;20181;-69
2022/10/02 04:12:32;;;;;;;0.63;0.50;;;15.50;99.90;15.40;101383.00;;;;5050402;28;20181;-69
2022/10/02 04:15:22;;;;;;;3.43;1.30;;;15.30;99.90;15.40;101376.00;;;;5033741;28;20176;-69
2022/10/02 04:18:03;;;;;;;0.20;0.20;;;15.30;99.90;15.30;101385.00;;;;5033393;28;20541;-69
2022/10/02 04:20:46;;;;;;;0.60;0.50;;;15.20;99.90;15.30;101387.00;;;;5032826;28;20652;-69
2022/10/02 04:23:27;;;;;;;0.20;0.20;;;15.10;99.90;15.50;101397.00;;;;5033241;28;20720;-69
2022/10/02 04:26:02;;;;;;;8.37;1.37;;;15.10;99.90;15.20;101382.00;;;;5016789;28;20189;-67
2022/10/02 04:28:37;;;;;;;0.20;0.20;;;15.10;99.90;15.40;101394.00;;;;5016979;28;20604;-70
2022/10/02 04:31:11;;;;;;;0.40;0.40;;;15.10;99.90;15.10;101404.00;;;;5033655;28;20174;-70
2022/10/02 04:33:42;;;;;;;0.20;0.20;;;15.00;99.90;15.10;101410.00;;;;5033416;28;20188;-70
2022/10/02 04:37:03;;;;;;;5.03;1.63;;;14.90;99.90;14.90;101417.00;;;;5033308;28;20206;-71
2022/10/02 04:39:56;;;;;;;0.60;0.60;;;14.90;99.90;14.90;101421.00;;;;5034423;28;20189;-70
2022/10/02 04:42:57;;;;;;;1.13;1.03;;;14.80;99.90;14.90;101421.00;;;;5033123;28;20189;-70
2022/10/02 04:46:03;;;;;;;1.43;1.33;;;14.70;99.90;14.90;101419.00;;;;5025996;28;20249;-70
2022/10/02 04:48:50;;;;;;;0.20;0.20;;;14.70;99.90;15.10;101413.00;;;;5033072;28;20216;-70
2022/10/02 04:52:03;;;;;;;2.27;1.07;;;14.80;99.90;15.20;101418.00;;;;5034044;28;20191;-70
2022/10/02 04:55:06;;;;;;;1.80;1.07;;;14.80;99.90;14.60;101425.00;;;;5033924;28;20520;-70
2022/10/02 04:58:02;;;;;;;3.27;0.93;;;14.60;99.90;14.90;101424.00;;;;5032915;28;20212;-70
2022/10/02 05:00:55;;;;;;;0.73;0.73;;;14.60;99.90;14.90;101419.00;;;;5033846;28;20543;-70
2022/10/02 05:03:30;;;;;;;5.13;1.27;;;14.60;99.90;14.70;101425.00;;;;5032910;28;20649;-70
2022/10/02 05:06:31;;;;;;;1.63;1.53;;;14.60;99.90;14.50;101420.00;;;;5032490;28;20170;-70
2022/10/02 05:09:14;;;;;;;0.30;0.30;;;14.50;99.90;14.50;101429.00;;;;5032389;28;20646;-70
2022/10/02 05:12:23;;;;;;;1.53;1.43;;;14.40;99.90;14.70;101416.00;;;;5034150;28;20209;-70
2022/10/02 05:15:19;;;;;;;0.20;0.20;;;14.40;99.90;14.70;101409.00;;;;5032537;28;20192;-71
2022/10/02 05:18:44;;;;;;;2.13;1.00;;;14.50;99.90;14.40;101441.00;;;;5033598;28;20305;-70
2022/10/02 05:21:19;;;;;;;0.20;0.20;;;14.50;99.90;14.60;101402.00;;;;5032020;28;20699;-70
2022/10/02 05:24:26;;;;;;;0.40;0.40;;;14.40;99.90;14.30;101453.00;;;;5033500;28;20248;-70
2022/10/02 05:27:31;;;;;;;2.23;0.90;;;14.30;99.90;14.40;101445.00;;;;5032350;28;20197;-70
2022/10/02 05:30:05;;;;;;;0.63;0.63;;;14.20;99.90;14.50;101455.00;;;;5033691;28;20654;-70
2022/10/02 05:33:02;;;;;;;2.47;0.60;;;14.30;99.90;14.80;101455.00;;;;5033397;28;20637;-70
2022/10/02 05:35:30;;;;;;;0.70;0.70;;;14.30;99.90;14.40;101462.00;;;;5033329;28;20185;-70
2022/10/02 05:38:44;;;;;;;0.30;0.30;;;14.30;99.90;14.40;101463.00;;;;5031913;28;20223;-70
2022/10/02 05:41:39;;;;;;;1.63;1.00;;;14.20;99.90;14.50;101459.00;;;;5033238;28;20189;-70
2022/10/02 05:44:14;;;;;;;3.70;1.03;;;14.30;99.90;14.40;101424.00;;;;5029461;28;20212;-70
2022/10/02 05:47:19;;;;;;;0.30;0.30;;;14.20;99.90;14.30;101469.00;;;;5025187;28;20639;-70
2022/10/02 05:50:00;;;;;;;0.37;0.37;;;14.20;99.90;14.20;101472.00;;;;5009974;28;20190;-69
2022/10/02 05:52:58;;;;;;;1.03;0.93;;;14.10;99.90;14.60;101427.00;;;;5012267;28;20215;-70
2022/10/02 05:55:35;;;;;;;0.20;0.20;;;14.20;99.90;14.50;101473.00;;;;5012215;28;20187;-70
2022/10/02 05:58:18;;;;;;;0.20;0.20;;;14.30;99.90;14.50;101428.00;;;;5012397;28;20267;-69
2022/10/02 06:01:01;;;;;;;0.30;0.30;;;14.30;99.90;14.30;101469.00;;;;5012564;28;20186;-69
2022/10/02 06:03:42;;;;;;;0.50;0.50;;;14.20;99.90;14.20;101460.00;;;;5013439;28;20207;-70
2022/10/02 06:06:56;;;;;;;0.80;0.77;;;14.20;99.90;14.60;101470.00;;;;5012036;28;20214;-70
2022/10/02 06:09:47;;;;;;;0.30;0.30;;;14.20;99.90;14.50;101478.00;;;;5012221;28;20248;-71
2022/10/02 06:12:38;;;;;;;0.60;0.60;;;14.20;99.90;14.70;101481.00;;;;5012019;28;20220;-72
2022/10/02 06:15:38;;;;;;;0.20;0.20;;;14.20;99.90;14.60;101477.00;;;;5012396;28;20334;-71
2022/10/02 06:18:15;;;;;;;0.40;0.40;;;14.30;99.90;14.40;101491.00;;;;5012675;28;20242;-70
2022/10/02 06:20:55;;;;;;;1.70;1.50;;;14.30;99.90;14.70;101498.00;;;;5011821;28;20181;-71
2022/10/02 06:23:46;;;;;;;0.60;0.60;;;14.30;99.90;14.40;101515.00;;;;5012087;28;20238;-72
2022/10/02 06:26:41;;;;;;;0.87;0.40;;;14.30;99.90;14.20;101513.00;;;;5011980;28;20200;-72
2022/10/02 06:29:22;;;;;;;0.30;0.30;;;14.20;99.90;14.20;101519.00;;;;5012268;28;20187;-72
2022/10/02 06:31:57;;;;;;;0.63;0.63;;;14.10;99.90;14.40;101522.00;;;;5012938;28;20215;-72
2022/10/02 06:34:24;;;;;;;2.57;2.40;;;14.30;99.90;14.80;101518.00;;;;5012994;28;20172;-72
2022/10/02 06:37:20;;;;;;;1.70;1.60;;;14.30;99.90;14.40;101526.00;;;;5011990;28;20195;-71
2022/10/02 06:40:02;;;;;;;13.40;2.50;;;14.30;99.90;14.20;101527.00;;;;5012140;28;20168;-72
2022/10/02 06:43:05;;;;;;;4.83;1.97;;;14.20;99.90;14.40;101539.00;;;;5012353;28;20217;-71
2022/10/02 06:46:16;;;;;;;12.30;2.37;;;14.20;99.90;14.60;101502.00;;;;5015539;28;20179;-71
2022/10/02 06:49:15;;;;;;;1.57;1.47;;;14.30;99.90;14.60;101543.00;;;;5011186;28;20652;-71
2022/10/02 06:52:13;;;;;;;0.47;0.47;;;14.40;99.90;14.70;101547.00;;;;5034653;28;20194;-70
2022/10/02 06:55:29;;;;;;;1.40;1.40;;;14.40;99.90;14.30;101548.00;;;;5036643;28;20661;-71
2022/10/02 06:58:59;;;;;;;1.50;0.93;;;14.40;99.90;14.80;101540.00;;;;5034922;28;20274;-71
2022/10/02 07:01:57;;;;;;;0.30;0.30;;;14.40;99.90;15.10;101534.00;;;;5014191;28;20214;-72
2022/10/02 07:05:00;;;;;;;5.40;2.43;;;14.50;99.90;14.40;101534.00;;;;5013008;28;20185;-71
2022/10/02 07:08:12;;;;;;;0.57;0.57;;;14.40;99.90;14.50;101526.00;;;;5010167;28;20198;-72
2022/10/02 07:16:27;;;;;;;0.40;0.40;;;14.30;99.90;14.60;101525.00;;;;5001563;28;20706;-70
2022/10/02 07:19:10;;;;;;;1.30;1.30;;;14.30;99.90;14.60;101537.00;;;;4994613;28;20231;-70
2022/10/02 07:22:19;;;;;;;10.63;4.00;;;14.40;99.90;14.90;101540.00;;;;5001035;28;20183;-71
2022/10/02 07:25:23;;;;;;;0.20;0.20;;;14.50;99.90;14.90;101535.00;;;;5016037;28;20251;-71
2022/10/02 07:28:18;;;;;;;0.30;0.30;;;14.60;99.90;14.90;101533.00;;;;5015719;28;20179;-72
2022/10/02 07:31:14;;;;;;;0.83;0.83;;;14.70;99.90;15.20;101499.00;;;;5031153;28;20190;-72
2022/10/02 07:34:05;;;;;;;2.43;2.07;;;14.70;99.90;15.40;101531.00;;;;5036037;28;20219;-72
2022/10/02 07:36:47;;;;;;;1.83;1.53;;;14.80;99.90;15.20;101541.00;;;;5035532;28;20223;-72
2022/10/02 07:39:37;;;;;;;2.90;2.60;;;14.70;99.90;15.20;101493.00;;;;5035287;28;20551;-72
2022/10/02 07:42:42;;;;;;;2.27;2.03;;;14.90;99.90;14.90;101557.00;;;;5065242;28;20658;-71
2022/10/02 07:45:36;;;;;;;3.50;0.77;;;14.70;99.90;14.70;101558.00;;;;5015438;28;20527;-71
2022/10/02 07:48:24;;;;;;;0.93;0.90;;;14.60;99.90;14.80;101559.00;;;;5005126;28;20258;-72
2022/10/02 07:54:44;;;;;;;3.80;1.40;;;14.60;99.90;15.50;101566.00;;;;5015170;28;20214;-72
2022/10/02 07:57:54;;;;;;;2.27;0.67;;;15.00;99.90;15.30;101548.00;;;;5013328;28;20235;-72
2022/10/02 08:00:32;;;;;;;3.77;1.23;;;14.90;99.90;15.30;101574.00;;;;5018943;28;20190;-71
2022/10/02 08:04:09;;;;;;;5.33;2.37;;;14.90;99.90;15.60;101588.00;;;;5034027;28;20190;-71
2022/10/02 08:07:01;;;;;;;1.53;1.43;;;15.10;99.90;15.00;101555.00;;;;4993619;28;20284;-72
2022/10/02 08:09:58;;;;;;;1.17;1.07;;;15.00;99.90;15.30;101590.00;;;;4993194;28;20354;-72
2022/10/02 08:13:19;;;;;;;0.40;0.40;;;15.00;99.90;15.10;101598.00;;;;4977119;28;20183;-72
2022/10/02 08:16:16;;;;;;;1.43;1.13;;;14.80;99.90;14.90;101592.00;;;;4978205;28;20200;-72
2022/10/02 08:19:26;;;;;;;4.00;1.77;;;14.90;99.90;15.00;101607.00;;;;4992604;28;20194;-72
2022/10/02 08:22:27;;;;;;;2.43;0.80;;;14.80;99.90;14.90;101604.00;;;;4993174;28;20592;-71
2022/10/02 08:25:21;;;;;;;3.80;2.67;;;14.80;99.90;14.80;101601.00;;;;5046523;28;20188;-71
2022/10/02 08:28:34;;;;;;;2.07;1.70;;;14.80;99.90;15.10;101608.00;;;;4997197;28;20191;-71
2022/10/02 08:31:10;;;;;;;10.13;2.17;;;14.80;99.90;14.80;101608.00;;;;5013829;28;20270;-71
2022/10/02 08:34:02;;;;;;;0.30;0.30;;;14.80;99.90;15.10;101604.00;;;;5013654;28;20185;-71
2022/10/02 08:37:27;;;;;;;5.10;1.60;;;14.80;99.90;15.20;101604.00;;;;5023171;28;20219;-71
2022/10/02 08:40:29;;;;;;;0.30;0.30;;;14.90;99.90;15.30;101602.00;;;;5033043;28;20183;-71
2022/10/02 08:43:30;;;;;;;2.20;1.77;;;14.90;99.90;15.00;101589.00;;;;5029273;28;20239;-71
2022/10/02 08:46:30;;;;;;;1.70;1.33;;;14.90;99.90;15.20;101585.00;;;;5046493;28;20177;-71
2022/10/02 08:49:55;;;;;;;0.57;0.53;;;14.90;99.90;15.30;101615.00;;;;5014583;28;20211;-71
2022/10/02 08:55:43;;;;;;;0.93;0.57;;;15.00;99.90;15.10;101620.00;;;;5020567;28;20238;-71
2022/10/02 08:58:53;;;;;;;3.07;2.83;;;15.10;99.90;15.00;101621.00;;;;5014029;28;20252;-71
2022/10/02 09:01:43;;;;;;;3.77;3.47;;;14.90;99.90;15.70;101618.00;;;;5012447;28;20189;-71
2022/10/02 09:05:02;;;;;;;0.80;0.80;;;15.20;99.90;15.60;101619.00;;;;5046151;28;20246;-71
2022/10/02 09:07:56;;;;;;;6.20;2.07;;;15.30;99.90;15.00;101565.00;;;;5014023;28;20178;-71
2022/10/02 09:11:02;;;;;;;0.73;0.60;;;15.10;99.90;15.30;101600.00;;;;5014158;28;20209;-70
2022/10/02 09:14:09;;;;;;;6.13;2.53;;;15.00;99.90;15.30;101570.00;;;;5045424;28;20191;-72
2022/10/02 09:17:05;;;;;;;2.53;2.33;;;15.10;99.90;15.70;101613.00;;;;5045809;28;20204;-72
2022/10/02 09:19:58;;;;;;;1.50;1.40;;;15.30;99.90;16.20;101637.00;;;;5045961;28;20189;-72
2022/10/02 09:23:37;;;;;;;0.67;0.67;;;15.60;99.90;16.20;101625.00;;;;5013976;28;20185;-71
2022/10/02 09:26:20;;;;;;;1.00;1.00;;;15.80;99.90;15.40;101617.00;;;;5011675;28;20193;-69
2022/10/02 09:29:47;;;;;;;1.13;1.03;;;15.40;99.90;15.70;101650.00;;;;5046004;28;20208;-71
2022/10/02 09:32:50;;;;;;;4.07;2.87;;;15.50;99.90;15.20;101654.00;;;;5011527;28;20256;-72
2022/10/02 09:35:37;;;;;;;2.57;1.57;;;15.30;99.90;15.30;101654.00;;;;5011804;28;20180;-72
2022/10/02 09:38:28;;;;;;;1.47;1.37;;;15.30;99.90;15.60;101657.00;;;;5011294;28;20221;-72
2022/10/02 09:41:27;;;;;;;1.07;1.07;;;15.40;99.90;15.40;101658.00;;;;5011292;28;20186;-72
2022/10/02 09:44:12;;;;;;;0.63;0.63;;;15.40;99.90;15.60;101620.00;;;;5012669;28;20276;-72
2022/10/02 09:47:52;;;;;;;0.40;0.40;;;15.40;99.90;15.70;101647.00;;;;5013515;28;20183;-72
2022/10/02 09:51:16;;;;;;;2.50;1.70;;;15.60;99.90;16.00;101673.00;;;;5011277;28;20648;-71
2022/10/02 09:54:36;;;;;;;1.37;1.27;;;15.80;99.90;15.60;101663.00;;;;4989471;28;20199;-71
2022/10/02 10:01:05;;;;;;;4.33;3.93;;;15.40;99.90;15.50;101659.00;;;;4947008;28;20722;-71
2022/10/02 10:04:13;;;;;;;0.70;0.70;;;15.50;99.90;15.80;101653.00;;;;4973874;28;20197;-71
2022/10/02 10:07:20;;;;;;;1.03;1.03;;;15.60;99.90;16.10;101609.00;;;;4991743;28;20309;-72
2022/10/02 10:10:18;;;;;;;2.60;2.40;;;15.80;99.90;15.80;101641.00;;;;4975155;28;20234;-71
2022/10/02 10:13:21;;;;;;;1.37;1.33;;;15.60;99.90;16.00;101664.00;;;;4975184;28;20260;-72
2022/10/02 10:17:04;;;;;;;1.07;1.07;;;15.80;99.90;16.20;101662.00;;;;5013282;28;20567;-71
2022/10/02 10:19:58;;;;;;;2.33;1.90;;;15.70;99.90;16.10;101666.00;;;;4974295;28;20214;-69
2022/10/02 10:34:17;;;;;;;3.23;2.23;;;15.30;99.90;15.50;101675.00;;;;5070611;28;20552;-69
2022/10/02 10:40:23;;;;;;;3.57;2.63;;;15.60;99.90;16.10;101671.00;;;;5050385;28;20663;-70
2022/10/02 10:43:27;;;;;;;6.73;4.20;;;15.90;99.90;16.20;101676.00;;;;5032821;28;20587;-69
2022/10/02 10:46:17;;;;;;;2.80;2.60;;;16.00;99.90;16.70;101689.00;;;;5050698;28;20596;-70
2022/10/02 10:49:12;;;;;;;0.90;0.90;;;16.20;99.90;16.70;101688.00;;;;5050518;28;20250;-69
2022/10/02 10:52:41;;;;;;;0.73;0.73;;;16.40;99.90;16.50;101693.00;;;;5050424;28;20207;-65
2022/10/02 10:55:17;;;;;;;1.57;1.47;;;16.40;99.90;16.60;101696.00;;;;5049994;28;20321;-65
2022/10/02 10:58:54;;;;;;;1.60;1.50;;;16.40;99.90;16.60;101701.00;;;;5049931;28;20558;-65
2022/10/02 11:01:37;;;;;;;2.13;2.03;;;16.30;99.90;16.20;101690.00;;;;5044011;28;20205;-64
2022/10/02 11:04:46;;;;;;;1.10;1.03;;;16.20;99.90;17.20;101700.00;;;;5049845;28;20220;-65
2022/10/02 11:07:44;;;;;;;0.40;0.40;;;16.50;99.90;16.30;101700.00;;;;5049725;28;20173;-64
2022/10/02 11:10:39;;;;;;;0.50;0.50;;;16.50;99.90;17.10;101705.00;;;;5050058;28;20170;-65
2022/10/02 11:13:26;;;;;;;1.60;1.50;;;16.70;99.90;16.70;101671.00;;;;5049895;28;20287;-64
2022/10/02 11:17:06;;;;;;;0.37;0.37;;;16.60;99.90;16.70;101706.00;;;;5049794;28;20527;-64
2022/10/02 11:19:58;;;;;;;0.40;0.40;;;16.40;99.90;16.20;101711.00;;;;5041379;28;20279;-64
2022/10/02 11:22:56;;;;;;;1.63;1.53;;;16.30;99.90;17.40;101700.00;;;;5049286;28;20183;-64
2022/10/02 11:25:43;;;;;;;3.03;2.77;;;16.70;99.90;17.30;101702.00;;;;5049974;28;20209;-69
2022/10/02 11:29:09;;;;;;;3.70;3.33;;;16.80;99.90;17.30;101694.00;;;;5049368;28;20238;-69
2022/10/02 11:32:02;;;;;;;3.70;3.10;;;16.90;99.90;17.20;101698.00;;;;5049514;28;20642;-69
2022/10/02 11:34:34;;;;;;;3.97;2.97;;;17.10;99.90;17.20;101663.00;;;;5048088;28;20194;-69
2022/10/02 11:37:23;;;;;;;7.17;4.30;;;17.00;99.90;17.10;101715.00;;;;5048149;28;20392;-69
2022/10/02 11:43:45;;;;;;;4.93;3.13;;;17.10;99.90;16.60;101714.00;;;;5044237;28;20646;-69
2022/10/02 11:46:59;;;;;;;8.00;5.57;;;16.90;99.90;16.30;101720.00;;;;5035378;28;20193;-69
2022/10/02 11:49:52;;;;;;;2.50;1.63;;;16.50;99.90;16.70;101722.00;;;;5016470;28;20175;-69
2022/10/02 11:53:00;;;;;;;7.33;3.40;;;16.50;99.90;16.80;101687.00;;;;5015936;28;20204;-69
2022/10/02 11:55:32;;;;;;;0.33;0.33;;;16.80;99.90;16.50;101723.00;;;;5031280;28;20661;-69
2022/10/02 11:58:44;;;;;;;1.47;0.70;;;16.50;99.90;16.30;101726.00;;;;5035674;28;20192;-69
2022/10/02 12:01:37;;;;;;;3.17;2.90;;;16.40;99.90;16.80;101726.00;;;;5035675;28;20186;-69
2022/10/02 12:04:18;;;;;;;1.33;1.23;;;16.50;99.90;16.50;101730.00;;;;5035878;28;20184;-69
2022/10/02 12:07:57;;;;;;;2.27;1.67;;;16.40;99.90;16.80;101720.00;;;;5035570;28;20213;-69
2022/10/02 12:11:05;;;;;;;13.60;3.27;;;16.70;99.90;17.20;101726.00;;;;5003676;28;20720;-68
2022/10/02 12:14:11;;;;;;;0.30;0.30;;;16.80;99.90;16.40;101737.00;;;;5035463;28;20659;-69
2022/10/02 12:17:03;;;;;;;2.43;2.33;;;16.50;99.90;16.70;101733.00;;;;5035737;28;20204;-69
2022/10/02 12:29:54;;;;;;;2.73;2.53;;;16.90;99.90;17.70;101690.00;;;;5035195;28;20597;-69
2022/10/02 12:32:44;;;;;;;0.60;0.60;;;17.00;99.90;16.80;101752.00;;;;5033681;28;20581;-68
2022/10/02 12:36:23;;;;;;;1.30;0.73;;;16.90;99.90;16.80;101753.00;;;;5035003;28;20186;-69
2022/10/02 12:39:48;;;;;;;1.97;1.47;;;16.80;99.90;16.80;101739.00;;;;5009821;28;20206;-69
2022/10/02 12:42:47;;;;;;;2.67;2.03;;;16.70;99.90;17.40;101758.00;;;;5013100;28;20194;-69
2022/10/02 12:45:57;;;;;;;0.30;0.30;;;16.90;99.90;18.00;101760.00;;;;5012885;28;20211;-69
2022/10/02 12:49:54;;;;;;;1.40;1.30;;;17.40;99.90;18.00;101768.00;;;;5050614;28;20302;-68
2022/10/02 12:53:15;;;;;;;1.33;1.10;;;17.40;99.90;17.80;101769.00;;;;4973460;28;20659;-69
2022/10/02 12:56:19;;;;;;;2.17;1.77;;;17.30;99.90;17.40;101768.00;;;;4956786;28;20207;-69
2022/10/02 12:59:24;;;;;;;3.27;1.77;;;17.30;99.90;17.30;101739.00;;;;4957411;28;20193;-69
2022/10/02 13:02:13;;;;;;;1.43;1.33;;;17.20;99.90;17.10;101760.00;;;;5038942;28;20196;-69
2022/10/02 13:05:00;;;;;;;1.03;0.93;;;17.00;99.90;17.30;101791.00;;;;5013054;28;20197;-69
2022/10/02 13:08:36;;;;;;;4.23;1.70;;;17.00;99.90;16.60;101785.00;;;;5023524;28;20191;-69
2022/10/02 13:11:53;;;;;;;3.40;1.63;;;16.80;99.90;17.00;101793.00;;;;5034331;28;20178;-69
2022/10/02 13:14:41;;;;;;;0.87;0.87;;;16.90;99.90;16.90;101797.00;;;;5032910;28;20243;-69
2022/10/02 13:17:35;;;;;;;2.10;1.43;;;16.80;99.90;17.30;101780.00;;;;5034995;28;20686;-70
2022/10/02 13:20:38;;;;;;;0.30;0.30;;;17.00;99.90;17.50;101786.00;;;;5034239;28;20217;-69
2022/10/02 13:23:31;;;;;;;0.30;0.30;;;17.30;99.90;18.70;101789.00;;;;5033255;28;20261;-70
2022/10/02 13:27:32;;;;;;;0.30;0.30;;;17.70;99.90;19.30;101780.00;;;;5033185;28;20527;-70